Time;durP1;ratioP1;P1;durP2;ratioP2;P2;SDS_P1;SDS_P2;PMS_P1;PMS_P2;Temp;Humidity;BMP_temperature;BMP_pressure;BME280_temperature;BME280_humidity;BME280_pressure;Samples;Min_cycle;Max_cycle;Signal;HPM_P1;HPM_P2
2023/06/01 00:00:34;;;;;;;10.55;4.40;;;;;;;15.83;75.00;99489.63;4890280;29;20155;-91
2023/06/01 00:03:00;;;;;;;7.07;4.22;;;;;;;15.79;75.09;99486.69;4905335;29;20099;-93
2023/06/01 00:05:25;;;;;;;11.20;4.53;;;;;;;15.75;75.08;99470.22;4907354;29;20035;-94
2023/06/01 00:07:51;;;;;;;6.50;4.63;;;;;;;15.78;74.77;99471.53;4906769;29;20046;-95
2023/06/01 00:10:16;;;;;;;8.68;4.65;;;;;;;15.80;74.47;99463.88;4890724;29;20031;-95
2023/06/01 00:12:42;;;;;;;9.30;4.25;;;;;;;15.95;74.45;99469.00;4891035;29;20043;-94
2023/06/01 00:15:08;;;;;;;7.30;4.38;;;;;;;16.01;74.32;99479.78;4891253;29;20028;-94
2023/06/01 00:17:34;;;;;;;8.43;4.85;;;;;;;16.10;74.13;99483.38;4906229;29;20042;-94
2023/06/01 00:20:07;;;;;;;7.95;4.85;;;;;;;16.06;74.12;99466.91;4906697;29;20036;-94
2023/06/01 00:22:34;;;;;;;9.45;5.78;;;;;;;16.00;75.10;99480.88;4893501;29;20561;-94
2023/06/01 00:25:00;;;;;;;11.90;5.45;;;;;;;15.88;75.30;99475.97;4908129;29;20466;-94
2023/06/01 00:27:25;;;;;;;12.18;6.13;;;;;;;15.80;75.48;99482.09;4891734;29;20043;-94
2023/06/01 00:29:51;;;;;;;9.38;5.68;;;;;;;15.78;75.71;99484.28;4890349;29;20036;-93
2023/06/01 00:32:16;;;;;;;10.55;5.75;;;;;;;15.55;76.42;99468.63;4921965;29;20051;-93
2023/06/01 00:34:42;;;;;;;10.52;5.78;;;;;;;15.53;76.34;99468.13;4893114;29;20039;-95
2023/06/01 00:37:07;;;;;;;10.63;5.55;;;;;;;15.60;76.18;99472.38;4910013;29;20027;-94
2023/06/01 00:39:33;;;;;;;10.23;5.57;;;;;;;15.50;76.26;99476.88;4906251;29;20478;-93
2023/06/01 00:41:58;;;;;;;12.10;5.38;;;;;;;15.54;76.67;99490.66;4906900;29;20092;-94
2023/06/01 00:44:24;;;;;;;8.77;4.93;;;;;;;15.53;76.39;99497.19;4890794;29;20035;-96
2023/06/01 00:46:50;;;;;;;10.30;5.18;;;;;;;15.40;76.47;99481.66;4906726;29;20521;-92
2023/06/01 00:49:15;;;;;;;14.63;5.85;;;;;;;15.43;76.53;99500.06;4907970;29;20026;-92
2023/06/01 00:51:41;;;;;;;10.10;5.63;;;;;;;15.18;77.38;99491.25;4906558;29;20038;-95
2023/06/01 00:54:06;;;;;;;11.93;6.13;;;;;;;15.23;77.35;99499.31;4906416;29;20035;-95
2023/06/01 00:56:33;;;;;;;11.68;5.55;;;;;;;15.17;77.27;99470.66;4906335;29;20502;-93
2023/06/01 00:58:59;;;;;;;12.25;6.00;;;;;;;15.32;76.92;99483.16;4906493;29;20050;-94
2023/06/01 01:01:25;;;;;;;9.57;5.68;;;;;;;15.44;76.39;99491.66;4906813;29;20027;-95
2023/06/01 01:03:57;;;;;;;15.55;6.20;;;;;;;15.41;76.45;99492.22;4909341;29;20031;-95
2023/06/01 01:06:41;;;;;;;12.18;5.53;;;;;;;15.33;77.22;99499.13;4908524;29;20032;-94
2023/06/01 01:09:14;;;;;;;9.95;5.90;;;;;;;15.21;77.50;99484.41;4907351;29;20469;-96
2023/06/01 01:11:40;;;;;;;8.52;5.35;;;;;;;15.25;77.60;99496.28;4921911;29;20048;-95
2023/06/01 01:14:16;;;;;;;10.15;5.57;;;;;;;15.19;77.63;99492.88;4890526;29;20395;-94
2023/06/01 01:16:53;;;;;;;9.27;5.82;;;;;;;15.07;78.48;99487.09;4905973;29;20138;-95
2023/06/01 01:19:34;;;;;;;11.57;6.72;;;;;;;15.11;78.24;99493.56;4890982;29;20028;-96
2023/06/01 01:22:07;;;;;;;9.77;6.03;;;;;;;15.04;78.79;99490.41;4922176;29;20039;-95
2023/06/01 01:24:58;;;;;;;10.27;5.88;;;;;;;15.02;78.79;99506.94;4905612;29;20036;-96
2023/06/01 01:27:31;;;;;;;10.35;5.97;;;;;;;14.91;79.19;99495.47;4924196;29;20060;-95
2023/06/01 01:29:58;;;;;;;10.20;5.82;;;;;;;14.85;79.25;99496.63;4926536;29;20479;-94
2023/06/01 01:32:23;;;;;;;14.43;6.07;;;;;;;14.67;79.26;99478.47;4893670;29;20044;-95
2023/06/01 01:34:49;;;;;;;7.90;6.00;;;;;;;14.77;78.82;99488.38;4909254;29;20058;-96
2023/06/01 01:37:14;;;;;;;8.10;6.28;;;;;;;14.74;78.71;99477.00;4909653;29;20071;-94
2023/06/01 01:39:40;;;;;;;13.10;5.80;;;;;;;14.87;78.47;99496.34;4909300;29;20031;-95
2023/06/01 01:42:06;;;;;;;8.63;6.15;;;;;;;14.98;78.24;99497.00;4909134;29;20079;-95
2023/06/01 01:44:32;;;;;;;11.07;5.10;;;;;;;14.87;78.33;99497.16;4910819;29;20407;-94
2023/06/01 01:47:09;;;;;;;9.20;5.88;;;;;;;14.87;78.40;99502.56;4910445;29;20016;-94
2023/06/01 01:49:39;;;;;;;10.45;5.22;;;;;;;14.77;78.34;99491.06;4927200;29;20043;-95
2023/06/01 01:52:06;;;;;;;7.75;4.97;;;;;;;14.89;78.46;99516.63;4910482;29;20035;-95
2023/06/01 01:54:33;;;;;;;7.82;5.32;;;;;;;14.83;78.33;99511.59;4942055;29;20079;-94
2023/06/01 01:56:59;;;;;;;14.77;5.93;;;;;;;14.79;78.32;99511.34;4926449;29;20185;-94
2023/06/01 01:59:25;;;;;;;6.43;4.70;;;;;;;14.78;78.24;99515.19;4910484;29;20035;-96
2023/06/01 02:01:50;;;;;;;9.00;5.40;;;;;;;14.78;78.55;99519.81;4911208;29;20036;-94
2023/06/01 02:04:16;;;;;;;9.05;4.95;;;;;;;14.78;78.31;99500.84;4910039;29;20032;-94
2023/06/01 02:06:41;;;;;;;10.20;5.60;;;;;;;14.89;77.57;99496.84;4895124;29;20032;-95
2023/06/01 02:09:07;;;;;;;13.13;5.32;;;;;;;15.10;76.90;99519.84;4911020;29;20395;-95
2023/06/01 02:11:46;;;;;;;12.20;5.68;;;;;;;15.06;76.68;99510.69;5110328;27;20365;-96
2023/06/01 02:14:11;;;;;;;9.18;5.78;;;;;;;15.01;76.42;99502.63;5059558;28;20032;-95
2023/06/01 02:16:37;;;;;;;9.85;6.03;;;;;;;15.18;76.38;99509.44;5058906;28;20024;-95
2023/06/01 02:19:02;;;;;;;9.45;5.78;;;;;;;15.10;75.95;99492.72;5059531;28;20025;-94
2023/06/01 02:21:28;;;;;;;10.85;6.82;;;;;;;15.07;76.08;99495.25;5059569;28;20036;-95
2023/06/01 02:23:53;;;;;;;9.77;5.90;;;;;;;14.92;76.71;99496.25;5057840;28;20028;-95
2023/06/01 02:26:19;;;;;;;8.57;5.07;;;;;;;14.80;76.79;99502.13;5059200;28;20020;-96
2023/06/01 02:28:44;;;;;;;11.73;5.32;;;;;;;14.75;77.57;99513.03;5058955;28;20028;-95
2023/06/01 02:31:10;;;;;;;9.32;5.10;;;;;;;14.64;77.77;99512.38;5059505;28;20020;-95
2023/06/01 02:33:35;;;;;;;12.30;6.07;;;;;;;14.49;78.05;99499.81;5058502;28;20035;-95
2023/06/01 02:36:01;;;;;;;10.88;5.60;;;;;;;14.53;78.22;99510.88;5060925;28;20054;-95
2023/06/01 02:38:27;;;;;;;8.65;5.53;;;;;;;14.58;78.30;99521.69;5076363;28;20004;-96
2023/06/01 02:40:53;;;;;;;8.40;4.60;;;;;;;14.45;78.23;99517.75;5058424;28;20020;-95
2023/06/01 02:43:18;;;;;;;8.82;5.43;;;;;;;14.48;78.20;99533.41;5058552;28;20149;-96
2023/06/01 02:45:44;;;;;;;6.88;4.57;;;;;;;14.44;77.88;99523.44;5059631;28;20024;-96
2023/06/01 02:48:09;;;;;;;11.65;5.22;;;;;;;14.41;78.41;99521.34;5060070;28;20024;-96
2023/06/01 02:50:35;;;;;;;9.98;4.72;;;;;;;14.38;78.69;99522.72;5058792;28;20027;-96
2023/06/01 02:53:01;;;;;;;9.95;5.43;;;;;;;14.42;78.47;99518.34;5061664;28;20032;-96
2023/06/01 02:55:27;;;;;;;13.52;5.20;;;;;;;14.61;77.96;99523.81;5063006;28;20031;-96
2023/06/01 02:57:52;;;;;;;8.07;5.00;;;;;;;14.68;77.59;99526.97;5063125;28;20028;-96
2023/06/01 03:00:18;;;;;;;9.10;5.00;;;;;;;14.71;77.34;99520.16;5062118;28;20024;-96
2023/06/01 03:02:46;;;;;;;7.30;4.93;;;;;;;14.79;77.07;99521.41;5061926;28;20047;-96
2023/06/01 03:05:14;;;;;;;9.38;4.80;;;;;;;14.66;77.15;99521.03;5063258;28;20025;-96
2023/06/01 03:07:43;;;;;;;7.93;4.80;;;;;;;14.58;77.41;99521.69;5062274;28;20004;-96
2023/06/01 03:10:08;;;;;;;9.32;4.93;;;;;;;14.54;77.73;99520.63;5059728;28;20060;-96
2023/06/01 03:12:34;;;;;;;8.18;4.50;;;;;;;14.51;77.80;99540.97;5056913;28;20024;-96
2023/06/01 03:14:59;;;;;;;12.30;5.40;;;;;;;14.43;78.12;99529.97;5058041;28;20020;-95
2023/06/01 03:17:25;;;;;;;9.63;5.32;;;;;;;14.53;78.01;99543.41;5058248;28;20012;-96
2023/06/01 03:19:51;;;;;;;7.35;5.18;;;;;;;14.48;78.44;99543.44;5056318;28;20043;-96
2023/06/01 03:22:17;;;;;;;10.88;5.40;;;;;;;14.51;78.40;99554.53;5066723;28;20021;-96
2023/06/01 03:24:44;;;;;;;9.43;5.40;;;;;;;14.55;78.36;99558.28;5045180;28;20020;-96
2023/06/01 03:27:10;;;;;;;11.32;5.03;;;;;;;14.57;77.95;99547.19;5062307;28;20027;-96
2023/06/01 03:29:36;;;;;;;7.88;4.70;;;;;;;14.67;77.44;99544.34;5044530;28;20448;-96
2023/06/01 03:32:02;;;;;;;9.18;4.60;;;;;;;14.79;76.41;99543.09;5044246;28;20029;-95
2023/06/01 03:34:28;;;;;;;10.00;4.65;;;;;;;14.68;76.77;99539.72;5061669;28;20033;-96
2023/06/01 03:36:54;;;;;;;8.05;4.57;;;;;;;14.69;76.33;99544.84;5044487;28;20028;-96
2023/06/01 03:39:19;;;;;;;7.72;4.60;;;;;;;14.65;76.43;99546.53;5045032;28;20020;-95
2023/06/01 03:41:45;;;;;;;7.15;5.18;;;;;;;14.44;77.27;99535.09;5044881;28;20024;-96
2023/06/01 03:44:14;;;;;;;10.38;4.38;;;;;;;14.46;77.10;99534.81;5046060;28;20030;-96
2023/06/01 03:46:40;;;;;;;7.97;4.80;;;;;;;14.55;77.10;99547.47;5084862;28;20024;-96
2023/06/01 03:49:05;;;;;;;9.68;4.50;;;;;;;14.52;77.54;99560.75;5047378;28;20486;-96
2023/06/01 03:51:31;;;;;;;7.38;4.47;;;;;;;14.51;77.27;99545.59;5045655;28;20060;-96
2023/06/01 03:53:57;;;;;;;7.50;4.40;;;;;;;14.34;77.29;99527.13;5047163;28;20025;-96
2023/06/01 03:56:22;;;;;;;9.00;4.93;;;;;;;14.59;77.00;99552.28;5046881;28;20016;-96
2023/06/01 03:58:48;;;;;;;12.00;10.00;;;;;;;14.43;77.47;99547.03;5055798;28;20061;-95
2023/06/01 04:01:19;;;;;;;10.70;5.82;;;;;;;14.45;76.91;99528.59;5064439;28;20024;-94
2023/06/01 04:03:44;;;;;;;11.88;6.30;;;;;;;14.47;77.63;99520.19;5061520;28;20063;-93
2023/06/01 04:06:17;;;;;;;14.88;6.70;;;;;;;14.77;77.04;99548.00;5058590;28;20502;-91
2023/06/01 04:08:55;;;;;;;10.80;7.00;;;;;;;14.53;77.76;99524.44;5082997;28;20020;-90
2023/06/01 04:11:20;;;;;;;12.93;6.53;;;;;;;14.68;77.19;99532.38;5080594;28;20142;-94
2023/06/01 04:13:46;;;;;;;11.88;6.70;;;;;;;14.71;77.20;99530.97;5043729;28;20024;-95
2023/06/01 04:16:11;;;;;;;8.35;5.57;;;;;;;14.71;76.94;99523.69;5048730;28;20024;-96
2023/06/01 04:18:37;;;;;;;10.65;5.25;;;;;;;14.95;76.10;99536.34;5051438;28;20047;-91
2023/06/01 04:21:03;;;;;;;11.35;5.13;;;;;;;15.04;75.67;99528.34;5062574;28;20524;-96
2023/06/01 04:23:34;;;;;;;10.35;5.20;;;;;;;15.26;75.75;99554.88;5046340;28;20537;-95
2023/06/01 04:26:00;;;;;;;8.55;4.93;;;;;;;15.12;75.49;99523.06;5063128;28;20107;-95
2023/06/01 04:28:26;;;;;;;10.05;5.50;;;;;;;15.21;75.52;99541.38;5061261;28;20063;-96
2023/06/01 04:30:52;;;;;;;7.60;4.43;;;;;;;15.16;75.83;99531.44;5082741;28;20031;-93
2023/06/01 04:33:18;;;;;;;8.25;4.55;;;;;;;15.26;75.46;99525.06;5045618;28;20032;-95
2023/06/01 04:35:44;;;;;;;10.43;5.13;;;;;;;15.39;75.01;99526.19;5076140;28;20031;-95
2023/06/01 04:38:10;;;;;;;9.15;5.05;;;;;;;15.59;74.92;99555.72;5058324;28;20425;-95
2023/06/01 04:40:35;;;;;;;6.55;4.25;;;;;;;15.66;74.34;99544.47;5079283;28;20029;-95
2023/06/01 04:43:02;;;;;;;10.90;5.82;;;;;;;15.74;74.18;99527.53;5075805;28;20489;-96
2023/06/01 04:45:30;;;;;;;11.15;5.05;;;;;;;15.88;73.75;99532.97;5058572;28;20498;-96
2023/06/01 04:47:58;;;;;;;7.30;4.75;;;;;;;16.02;73.29;99543.84;5059150;28;20024;-95
2023/06/01 04:50:23;;;;;;;12.48;7.68;;;;;;;16.04;73.19;99520.72;5076602;28;20025;-96
2023/06/01 04:52:49;;;;;;;22.40;10.07;;;;;;;16.06;73.21;99517.69;5074574;28;20034;-96
2023/06/01 04:55:16;;;;;;;5.25;4.13;;;;;;;16.35;71.74;99526.38;5075897;28;20078;-95
2023/06/01 04:57:44;;;;;;;8.98;3.97;;;;;;;16.49;71.14;99537.19;5077383;28;20028;-96
2023/06/01 05:00:12;;;;;;;6.18;3.78;;;;;;;16.63;70.18;99531.75;5064255;28;20040;-95
2023/06/01 05:02:38;;;;;;;6.72;4.60;;;;;;;16.76;69.62;99535.56;5076474;28;20029;-96
2023/06/01 05:05:05;;;;;;;5.85;4.07;;;;;;;16.89;69.60;99542.94;5079026;28;20070;-95
2023/06/01 05:14:07;;;;;;;15.32;5.90;;;;;;;16.91;70.27;99545.31;4993463;28;20048;-92
2023/06/01 05:17:00;;;;;;;9.82;5.30;;;;;;;16.99;71.41;99550.03;5016673;28;20033;-95
2023/06/01 05:19:57;;;;;;;12.98;5.05;;;;;;;17.01;70.12;99544.28;5073579;28;20056;-93
2023/06/01 05:22:26;;;;;;;10.75;4.55;;;;;;;17.02;69.48;99538.56;5063164;28;20047;-95
2023/06/01 05:25:36;;;;;;;10.63;4.70;;;;;;;17.27;70.06;99552.69;5046403;28;20044;-96
2023/06/01 05:28:07;;;;;;;10.05;5.28;;;;;;;17.25;69.71;99546.75;5070567;28;20028;-96
2023/06/01 05:30:35;;;;;;;7.38;4.57;;;;;;;17.44;68.66;99544.63;5060656;28;20402;-94
2023/06/01 05:33:01;;;;;;;16.60;7.90;;;;;;;17.47;68.71;99549.47;5079186;28;20020;-92
2023/06/01 05:35:26;;;;;;;9.25;5.13;;;;;;;17.48;68.91;99542.09;5094278;28;20379;-94
2023/06/01 05:37:55;;;;;;;6.47;5.03;;;;;;;17.63;68.42;99540.91;5065977;28;20089;-93
2023/06/01 05:40:24;;;;;;;10.18;5.43;;;;;;;17.88;67.65;99547.63;5081266;28;20514;-94
2023/06/01 05:43:08;;;;;;;8.77;5.05;;;;;;;18.02;67.34;99550.28;5082266;28;20117;-95
2023/06/01 05:49:01;;;;;;;7.40;5.15;;;;;;;17.92;67.30;99535.78;5089938;28;20036;-95
2023/06/01 05:51:55;;;;;;;9.93;5.53;;;;;;;18.06;67.84;99553.97;5108613;28;20125;-96
2023/06/01 05:54:26;;;;;;;11.93;6.07;;;;;;;18.41;67.12;99565.00;5105830;28;20028;-95
2023/06/01 05:56:52;;;;;;;12.20;5.85;;;;;;;18.46;66.16;99543.06;5059111;28;20008;-94
2023/06/01 05:59:17;;;;;;;15.82;5.90;;;;;;;18.58;65.09;99544.03;5087428;28;20036;-95
2023/06/01 06:01:44;;;;;;;13.00;6.18;;;;;;;18.83;64.20;99551.84;5090095;28;20016;-93
2023/06/01 06:04:10;;;;;;;10.30;5.53;;;;;;;18.91;64.41;99548.31;5095234;28;20031;-92
2023/06/01 06:06:39;;;;;;;13.40;6.60;;;;;;;19.31;64.08;99567.25;5081462;28;20040;-95
2023/06/01 06:09:04;;;;;;;11.80;6.20;;;;;;;19.23;63.02;99546.22;5066001;28;20515;-95
2023/06/01 06:11:31;;;;;;;12.38;5.43;;;;;;;19.43;62.33;99547.50;5059206;28;20039;-92
2023/06/01 06:14:21;;;;;;;10.43;4.55;;;;;;;19.63;61.57;99554.19;5074825;28;20485;-94
2023/06/01 06:16:57;;;;;;;13.60;5.63;;;;;;;19.71;61.82;99543.28;5090248;28;20153;-93
2023/06/01 06:22:57;;;;;;;8.13;4.78;;;;;;;19.91;60.36;99527.31;5079162;28;20078;-93
2023/06/01 06:25:29;;;;;;;8.05;5.18;;;;;;;20.04;60.13;99539.16;5086057;28;20040;-96
2023/06/01 06:28:05;;;;;;;9.05;5.70;;;;;;;20.17;59.77;99530.75;5064743;28;20120;-92
2023/06/01 06:30:34;;;;;;;10.25;5.43;;;;;;;20.31;59.44;99543.41;5083156;28;20027;-91
2023/06/01 06:32:59;;;;;;;9.30;5.18;;;;;;;20.23;59.58;99525.88;5057929;28;20021;-94
2023/06/01 06:35:25;;;;;;;17.80;6.03;;;;;;;20.40;59.76;99527.75;5064448;28;20024;-91
2023/06/01 06:37:50;;;;;;;11.77;7.47;;;;;;;20.45;58.95;99524.03;5043772;28;20017;-94
2023/06/01 06:40:17;;;;;;;12.75;7.00;;;;;;;20.52;59.33;99522.38;5045915;28;20024;-92
2023/06/01 06:42:46;;;;;;;11.27;6.45;;;;;;;20.68;58.69;99524.56;5065067;28;20024;-93
2023/06/01 06:45:12;;;;;;;16.05;8.80;;;;;;;20.76;59.34;99534.63;5053675;28;20499;-94
2023/06/01 06:47:37;;;;;;;11.23;5.10;;;;;;;20.65;59.76;99506.03;5066504;28;20162;-93
2023/06/01 06:50:03;;;;;;;12.88;6.53;;;;;;;20.75;59.40;99525.63;5081263;28;20121;-91
2023/06/01 06:52:28;;;;;;;11.27;5.95;;;;;;;21.06;59.28;99542.78;5048680;28;20024;-93
2023/06/01 06:54:57;;;;;;;11.32;4.70;;;;;;;20.92;60.08;99524.69;5092616;28;20117;-95
2023/06/01 06:57:22;;;;;;;9.48;5.28;;;;;;;20.99;59.11;99527.69;5082666;28;20095;-95
2023/06/01 06:59:52;;;;;;;12.35;5.63;;;;;;;21.25;58.13;99537.63;5051435;28;20068;-96
2023/06/01 07:02:22;;;;;;;8.98;5.13;;;;;;;21.31;58.63;99550.00;5047405;28;20086;-95
2023/06/01 07:04:48;;;;;;;8.68;4.80;;;;;;;21.25;57.47;99532.16;5078824;28;20029;-94
2023/06/01 07:07:14;;;;;;;7.68;5.20;;;;;;;21.38;57.20;99541.22;5053337;28;20032;-95
2023/06/01 07:09:43;;;;;;;10.80;4.82;;;;;;;21.47;57.13;99535.69;5050773;28;20048;-95
2023/06/01 07:12:08;;;;;;;11.88;5.45;;;;;;;21.57;56.89;99541.53;5053973;28;20039;-91
2023/06/01 07:14:37;;;;;;;8.13;5.25;;;;;;;21.54;57.28;99527.72;5081091;28;20494;-95
2023/06/01 07:17:15;;;;;;;9.23;5.30;;;;;;;21.86;57.00;99558.19;5067414;28;20028;-96
2023/06/01 07:19:40;;;;;;;9.65;5.07;;;;;;;21.80;56.48;99525.50;5076869;28;20032;-91
2023/06/01 07:22:06;;;;;;;8.40;4.88;;;;;;;22.00;55.64;99526.56;5071110;28;20031;-94
2023/06/01 07:24:35;;;;;;;13.15;9.60;;;;;;;22.05;55.80;99525.53;5067175;28;20031;-93
2023/06/01 07:27:00;;;;;;;17.63;10.88;;;;;;;22.07;54.65;99525.19;5081746;28;20047;-90
2023/06/01 07:29:26;;;;;;;17.63;6.90;;;;;;;22.29;55.23;99540.44;5067330;28;20055;-91
2023/06/01 07:31:54;;;;;;;9.23;5.60;;;;;;;22.31;54.42;99522.50;5048720;28;20023;-89
2023/06/01 07:34:20;;;;;;;14.63;5.97;;;;;;;22.37;54.67;99544.97;5054325;28;20028;-90
2023/06/01 07:36:46;;;;;;;7.18;5.32;;;;;;;22.27;54.01;99521.56;5047908;28;20055;-90
2023/06/01 07:39:13;;;;;;;8.25;5.70;;;;;;;22.48;54.35;99526.94;5065692;28;20021;-92
2023/06/01 07:41:50;;;;;;;12.50;6.60;;;;;;;22.46;53.80;99520.19;5054056;28;20107;-89
2023/06/01 07:44:19;;;;;;;10.65;6.07;;;;;;;22.37;54.65;99528.53;5063067;28;20048;-91
2023/06/01 07:46:45;;;;;;;10.45;5.15;;;;;;;22.59;55.09;99533.53;5056119;28;20450;-92
2023/06/01 07:49:13;;;;;;;8.73;4.55;;;;;;;22.58;54.42;99510.00;5042884;28;20071;-92
2023/06/01 07:51:43;;;;;;;9.48;5.35;;;;;;;22.73;54.44;99510.44;5059752;28;20115;-92
2023/06/01 07:54:09;;;;;;;10.40;5.57;;;;;;;22.91;54.10;99511.75;5063744;28;20603;-91
2023/06/01 07:56:37;;;;;;;6.95;4.65;;;;;;;23.05;52.98;99510.59;5049106;28;20025;-91
2023/06/01 07:59:03;;;;;;;14.20;9.93;;;;;;;23.17;53.10;99502.31;5044325;28;20827;-89
2023/06/01 08:01:28;;;;;;;18.30;9.60;;;;;;;23.32;52.85;99518.03;5050618;28;20028;-89
2023/06/01 08:03:55;;;;;;;8.00;4.57;;;;;;;23.44;53.73;99519.91;5081061;28;20032;-89
2023/06/01 08:06:24;;;;;;;7.60;4.68;;;;;;;23.35;54.18;99498.09;5060795;28;20016;-92
2023/06/01 08:08:51;;;;;;;8.52;4.80;;;;;;;23.34;54.81;99523.97;5046194;28;20073;-92
2023/06/01 08:11:17;;;;;;;7.60;4.60;;;;;;;23.44;54.63;99508.94;5058976;28;20060;-90
2023/06/01 08:13:45;;;;;;;9.40;4.72;;;;;;;23.60;54.58;99514.47;5084125;28;20035;-89
2023/06/01 08:16:14;;;;;;;11.95;5.07;;;;;;;23.71;55.05;99514.75;5066847;28;20028;-91
2023/06/01 08:18:40;;;;;;;7.28;4.45;;;;;;;23.59;55.24;99485.38;5080587;28;20031;-92
2023/06/01 08:21:08;;;;;;;6.40;4.25;;;;;;;23.63;54.96;99480.75;5064235;28;20103;-93
2023/06/01 08:23:34;;;;;;;9.52;4.00;;;;;;;23.89;54.66;99506.97;5069134;28;20108;-91
2023/06/01 08:26:02;;;;;;;7.90;4.82;;;;;;;23.93;53.96;99494.91;5084383;28;20031;-89
2023/06/01 08:28:32;;;;;;;8.30;4.55;;;;;;;23.97;54.32;99486.75;5075165;28;20024;-90
2023/06/01 08:30:58;;;;;;;7.43;4.15;;;;;;;23.93;54.86;99491.38;5057731;28;20029;-90
2023/06/01 08:33:23;;;;;;;7.53;3.95;;;;;;;23.94;54.68;99477.25;5060151;28;20033;-90
2023/06/01 08:35:49;;;;;;;11.50;7.22;;;;;;;23.80;55.91;99482.38;5063800;28;20020;-94
2023/06/01 08:38:14;;;;;;;11.80;4.50;;;;;;;23.96;54.04;99471.41;5078127;28;20024;-92
2023/06/01 08:40:40;;;;;;;10.80;4.85;;;;;;;24.04;54.25;99469.63;5083727;28;20431;-93
2023/06/01 08:43:21;;;;;;;6.82;3.38;;;;;;;24.25;52.71;99491.34;5085030;28;20028;-91
2023/06/01 08:45:47;;;;;;;6.38;3.13;;;;;;;24.05;48.19;99473.94;5070401;28;20044;-93
2023/06/01 08:48:18;;;;;;;4.68;3.38;;;;;;;24.19;48.41;99472.34;5051949;28;20035;-91
2023/06/01 08:50:49;;;;;;;5.97;3.17;;;;;;;24.16;46.81;99469.53;5049414;28;20603;-92
2023/06/01 08:53:23;;;;;;;4.65;3.50;;;;;;;24.23;46.55;99486.19;5067318;28;20055;-92
2023/06/01 08:55:52;;;;;;;8.50;3.75;;;;;;;24.33;47.68;99468.31;5042860;28;20043;-92
2023/06/01 08:58:18;;;;;;;8.45;4.38;;;;;;;24.48;44.65;99474.94;5054700;28;20086;-93
2023/06/01 09:00:43;;;;;;;12.50;5.50;;;;;;;24.46;40.73;99474.50;5073474;28;20113;-94
2023/06/01 09:03:28;;;;;;;7.03;4.88;;;;;;;24.55;41.80;99467.69;5085528;28;20486;-96
2023/06/01 09:05:55;;;;;;;6.72;3.15;;;;;;;24.49;44.31;99449.84;5061095;28;20099;-93
2023/06/01 09:08:22;;;;;;;8.27;4.60;;;;;;;24.57;44.62;99445.28;5056607;28;20520;-94
2023/06/01 09:11:24;;;;;;;6.75;3.95;;;;;;;24.83;46.38;99455.66;5077597;28;20103;-94
2023/06/01 09:13:49;;;;;;;5.95;3.60;;;;;;;24.83;45.18;99447.41;5091135;28;20115;-93
2023/06/01 09:16:15;;;;;;;7.10;3.67;;;;;;;24.69;44.46;99447.91;5049299;28;20066;-91
2023/06/01 09:19:02;;;;;;;8.82;3.30;;;;;;;24.84;44.01;99462.78;5050933;28;20043;-96
2023/06/01 09:25:01;;;;;;;;;;;;;;;24.93;43.33;99460.59;5085030;28;20101;-96
2023/06/01 09:27:44;;;;;;;5.93;3.28;;;;;;;24.76;43.52;99439.78;5096661;28;20443;-96
2023/06/01 09:30:17;;;;;;;6.20;3.75;;;;;;;24.75;42.78;99437.41;5073453;28;20028;-96
2023/06/01 09:32:47;;;;;;;5.85;3.33;;;;;;;24.81;42.70;99450.50;5064695;28;20409;-96
2023/06/01 09:35:13;;;;;;;5.72;2.83;;;;;;;24.85;42.76;99441.53;5054366;28;20115;-95
2023/06/01 09:37:41;;;;;;;9.10;3.30;;;;;;;24.72;43.50;99458.19;5061745;28;20063;-96
2023/06/01 09:40:30;;;;;;;7.57;3.58;;;;;;;24.80;41.98;99457.19;5057432;28;20016;-95
2023/06/01 09:42:56;;;;;;;5.10;3.03;;;;;;;24.84;41.19;99437.16;5059155;28;20115;-95
2023/06/01 09:45:22;;;;;;;6.15;2.97;;;;;;;24.75;40.97;99437.41;5043797;28;20048;-96
2023/06/01 09:47:51;;;;;;;6.82;3.33;;;;;;;24.69;40.56;99414.84;5041485;28;20032;-94
2023/06/01 09:50:49;;;;;;;4.68;2.75;;;;;;;24.88;40.28;99435.28;5051075;28;20031;-96
2023/06/01 09:53:15;;;;;;;9.60;4.30;;;;;;;24.83;41.11;99425.38;5047836;28;20505;-95
2023/06/01 09:55:58;;;;;;;7.28;3.33;;;;;;;24.74;41.01;99419.28;5079241;28;20055;-95
2023/06/01 09:58:23;;;;;;;5.22;3.13;;;;;;;24.77;41.20;99416.59;5088714;28;20028;-96
2023/06/01 10:00:54;;;;;;;4.85;2.85;;;;;;;24.92;39.73;99406.69;5063206;28;20035;-94
2023/06/01 10:03:21;;;;;;;7.25;2.88;;;;;;;25.00;39.23;99416.63;5051464;28;20040;-96
2023/06/01 10:06:34;;;;;;;6.90;4.78;;;;;;;25.26;39.70;99428.19;5059045;28;20547;-93
2023/06/01 10:09:00;;;;;;;7.68;3.45;;;;;;;25.45;39.47;99428.13;5081408;28;20057;-95
2023/06/01 10:11:27;;;;;;;6.45;3.20;;;;;;;25.38;39.45;99416.94;5046814;28;20049;-95
2023/06/01 10:13:53;;;;;;;6.57;3.22;;;;;;;25.31;38.90;99403.06;5041979;28;20099;-96
2023/06/01 10:16:18;;;;;;;4.50;3.08;;;;;;;25.50;37.56;99422.28;5049420;28;20433;-96
2023/06/01 10:18:48;;;;;;;5.30;4.35;;;;;;;25.50;38.68;99405.75;5061261;28;20108;-96
2023/06/01 10:21:13;;;;;;;6.60;4.18;;;;;;;25.56;38.37;99392.47;5049971;28;20032;-95
2023/06/01 10:23:40;;;;;;;8.48;3.17;;;;;;;25.74;37.34;99396.28;5056934;28;20490;-90
2023/06/01 10:26:12;;;;;;;6.47;3.40;;;;;;;25.93;35.91;99405.69;5079430;28;20028;-89
2023/06/01 10:28:38;;;;;;;4.47;3.25;;;;;;;25.82;35.12;99391.69;5091092;28;20028;-89
2023/06/01 10:31:37;;;;;;;7.32;3.67;;;;;;;26.11;35.39;99414.22;5075735;28;20547;-89
2023/06/01 10:34:03;;;;;;;5.70;2.67;;;;;;;26.09;35.59;99400.78;5096486;28;20058;-91
2023/06/01 10:36:51;;;;;;;4.57;2.72;;;;;;;26.19;34.12;99402.91;5079547;28;20085;-88
2023/06/01 10:39:46;;;;;;;5.78;2.72;;;;;;;26.11;33.49;99403.97;5093780;28;20028;-91
2023/06/01 10:42:14;;;;;;;6.38;2.80;;;;;;;26.14;34.11;99396.91;5091286;28;20055;-88
2023/06/01 10:44:39;;;;;;;7.78;3.15;;;;;;;26.24;34.01;99401.78;5078943;28;20032;-89
2023/06/01 10:47:11;;;;;;;8.52;3.40;;;;;;;26.30;35.20;99393.97;5088106;28;20034;-89
2023/06/01 10:50:06;;;;;;;5.78;3.10;;;;;;;26.22;35.13;99382.03;5081792;28;20094;-89
2023/06/01 10:52:35;;;;;;;6.05;3.03;;;;;;;26.20;33.94;99398.19;5090294;28;20097;-90
2023/06/01 10:55:10;;;;;;;3.75;2.58;;;;;;;26.14;33.11;99383.13;5082986;28;20039;-90
2023/06/01 10:57:47;;;;;;;4.25;2.92;;;;;;;26.17;34.07;99369.38;5081164;28;20044;-90
2023/06/01 11:00:29;;;;;;;3.90;2.70;;;;;;;26.20;31.98;99365.06;5069975;28;20410;-92
2023/06/01 11:03:04;;;;;;;5.90;3.65;;;;;;;26.19;33.14;99350.47;5044935;28;20565;-94
2023/06/01 11:05:47;;;;;;;5.20;3.63;;;;;;;26.18;32.12;99351.63;5044420;28;20032;-94
2023/06/01 11:08:19;;;;;;;11.38;4.78;;;;;;;26.27;32.77;99362.38;5044135;28;20444;-92
2023/06/01 11:10:53;;;;;;;5.18;3.38;;;;;;;26.23;32.21;99360.75;5084091;28;20048;-96
2023/06/01 11:13:25;;;;;;;8.02;3.08;;;;;;;26.23;32.24;99355.22;5088467;28;20024;-94
2023/06/01 11:16:10;;;;;;;6.07;3.42;;;;;;;26.34;32.65;99356.97;5085229;28;20106;-96
2023/06/01 11:18:48;;;;;;;7.82;3.42;;;;;;;26.31;33.53;99349.41;5080166;28;20036;-96
2023/06/01 11:21:20;;;;;;;4.38;3.20;;;;;;;26.40;33.36;99344.41;5097932;28;20019;-94
2023/06/01 11:23:48;;;;;;;11.52;5.05;;;;;;;26.54;33.10;99340.22;5097758;28;20020;-93
2023/06/01 11:26:18;;;;;;;8.55;4.95;;;;;;;26.67;32.42;99338.84;5085690;28;20028;-95
2023/06/01 11:28:47;;;;;;;4.03;2.90;;;;;;;26.57;31.09;99322.94;5057744;28;20028;-96
2023/06/01 11:31:53;;;;;;;5.32;3.30;;;;;;;26.70;31.22;99324.25;5062174;28;20084;-94
2023/06/01 11:34:22;;;;;;;8.60;3.20;;;;;;;26.67;31.69;99319.50;5079908;28;20066;-96
2023/06/01 11:37:00;;;;;;;5.45;3.17;;;;;;;26.72;30.90;99315.59;5066802;28;20095;-95
2023/06/01 11:39:29;;;;;;;4.60;3.30;;;;;;;26.75;31.30;99304.59;5073954;28;20081;-94
2023/06/01 11:42:09;;;;;;;9.73;3.58;;;;;;;26.74;31.46;99299.44;5065048;28;20466;-96
2023/06/01 11:44:41;;;;;;;4.05;2.88;;;;;;;26.76;31.46;99308.16;5078969;28;20048;-94
2023/06/01 11:47:07;;;;;;;6.55;3.10;;;;;;;26.72;31.99;99293.50;5063871;28;20020;-92
2023/06/01 11:50:19;;;;;;;5.82;3.42;;;;;;;26.76;31.55;99310.91;5066896;28;20086;-95
2023/06/01 11:52:46;;;;;;;6.95;3.13;;;;;;;26.95;31.68;99296.09;5110478;28;20042;-94
2023/06/01 11:55:12;;;;;;;5.90;2.75;;;;;;;27.07;31.90;99295.03;5055247;28;20198;-93
2023/06/01 11:57:42;;;;;;;7.68;3.33;;;;;;;27.17;31.99;99278.53;5064494;28;20090;-92
2023/06/01 12:00:13;;;;;;;4.53;3.10;;;;;;;27.26;31.80;99286.50;5077159;28;20032;-95